Terminal Aerodrome Forecast
Issued by NWS Twin Cities, MN

Home | Current Version | Previous Version | Graphics & Text | Print | Product List | Glossary On
Versions: 1 2 3 4 5 6 7 8 9 10 11 12 13 14 15 16 17 18 19
000
FTUS43 KMPX 230523
TAFSTC
TAF
KSTC 230523Z 2306/2406 10005KT 3/4SM -SN BR VV012
      TEMPO 2306/2308 1/2SM SN
     FM230900 VRB03KT 2SM -SN BR OVC008
     FM231200 27004KT P6SM OVC012
     FM231600 30009KT P6SM SCT015
     FM240100 29005KT P6SM SKC=

USA.gov is the U.S. government's official web portal to all federal, state and local government web resources and services.